Plain View, Virginia
Current Conditions -  °F | °C
As of 7:35 PM on Sunday 21 Dec 2014 (Local Time) from KFYJ Reporting Station
Clear Clear  
Wind Chill: 35°   Ceiling: Unl
Heat Index: 35°   Visibility: 10mi
Dew Point: 29°   Wind: 3mph
Humidity: 78%   Direction: 70°ENE
Pressure: 30.34"   Gusts: NA
Location:  37.5357°N, 76.7136°W
Report Text: KFYJ 220035Z AUTO 07003KT 10SM CLR 02/M02 A3034 RMK AO2 T00151019
Loading
Personal Weather Stations






























Interactive Weather Map New forecast layout! Learn more

10-Day Weather Forecast

Advertisements
Track Severe Weather on mobile